EGPI

Islay Airport

Port Ellen, United Kingdom
METAR EGPI 241120Z 28014KT 9999 FEW028 13/10 Q1036
Observed Flight Rules
Sep-24 @ 11:20 UTC (13 minutes ago) Visual Flight Rules
Wind Visibility Clouds
280° at 14 knots 10,000+ meters
  • Few at 2,800' AGL
Temperatures Readings
Current 13°C / 55°F
Dewpoint 10°C / 50°F
Humidity 82%
Altimeter 30.59" Hg
Pressure 1036 hPa
Elevation 18
METAR EGPI 241120Z 28014KT 9999 FEW028 13/10 Q1036
Observed Flight Rules
Sep-24 @ 11:20 UTC
(13 minutes ago)
VFR
Wind Visibility
280° at 14 knots 10,000+ meters
Clouds
  • Few at 2,800' AGL
Temperature Dewpoint
13°C / 55°F 10°C / 50°F
Humidity Altimeter Pressure
82% 30.59" Hg 1036 hPa